Terminal Aerodrome Forecast
Issued by NWS Cleveland, OH

Home | Current Version | Previous Version | Text Only | Print | Product List | Glossary Off
Versions: 1 2 3 4 5 6 7 8 9 10 11 12 13 14 15

886
FTUS41 KCLE 171424 AAA
TAFCAK
TAF AMD
KCAK 171424Z 1714/1812 34006KT P6SM BKN050
     FM172000 36006KT P6SM SKC
     FM180300 02003KT P6SM SCT040=

USA.gov is the U.S. government's official web portal to all federal, state and local government web resources and services.